CheckWX is a tool to help pilots better visualize weather data.  It is not intended as a substitute for an official pre-flight weather briefing.

04:00:59 UTC

CYXP METAR
Pangnirtung Airport
Pangnirtung, Canada
Current

6 hours ago

CYXP 242200Z 26007KT 15SM SKC M16/M22 A3004 RMK S0.0 AFT 11UTC 8.0/LAST STFD OBS/NEXT 251100Z SLP177
Observed
Apr-24 @ 22:00 UTC
Wind
  • 260° at 7 KTS
Visibility
15 SM
Flight Rules
VFR
Cloud Levels
  • Clear skies
Temperature
-16°C / 3°F
Dewpoint
-22°C / -8°F
Humidity
60%
Altimeter
30.04" Hg
Pressure
1017.32 hPa
Previous

7 hours ago

CYXP 242100Z 25012KT 15SM SKC M16/M22 A3003 RMK SLP175
Observed
Apr-24 @ 21:00 UTC
Wind
  • 250° at 12 KTS
Visibility
15 SM
Flight Rules
VFR
Cloud Levels
  • Clear skies
Temperature
-16°C / 3°F
Dewpoint
-22°C / -8°F
Humidity
60%
Altimeter
30.03" Hg
Pressure
1016.92 hPa
Previous

8 hours ago

CYXP 242000Z 25010KT 15SM SKC M16/M23 A3002 RMK SLP172
Observed
Apr-24 @ 20:00 UTC
Wind
  • 250° at 10 KTS
Visibility
15 SM
Flight Rules
VFR
Cloud Levels
  • Clear skies
Temperature
-16°C / 3°F
Dewpoint
-23°C / -9°F
Humidity
55%
Altimeter
30.02" Hg
Pressure
1016.62 hPa